sensor_id;sensor_type;location;lat;lon;timestamp;temperature;humidity
41435;DHT22;27177;22.262;114.192;2022-12-18T00:02:12;8.40;65.10
41435;DHT22;27177;22.262;114.192;2022-12-18T00:04:39;8.40;65.90
41435;DHT22;27177;22.262;114.192;2022-12-18T00:07:06;8.40;66.00
41435;DHT22;27177;22.262;114.192;2022-12-18T00:09:33;8.50;67.20
41435;DHT22;27177;22.262;114.192;2022-12-18T00:12:00;8.50;66.80
41435;DHT22;27177;22.262;114.192;2022-12-18T00:14:27;8.50;65.60
41435;DHT22;27177;22.262;114.192;2022-12-18T00:16:53;8.40;64.60
41435;DHT22;27177;22.262;114.192;2022-12-18T00:19:20;8.50;65.40
41435;DHT22;27177;22.262;114.192;2022-12-18T00:21:47;8.50;65.30
41435;DHT22;27177;22.262;114.192;2022-12-18T00:24:14;8.50;64.00
41435;DHT22;27177;22.262;114.192;2022-12-18T00:26:40;8.50;64.40
41435;DHT22;27177;22.262;114.192;2022-12-18T00:29:11;8.50;63.50
41435;DHT22;27177;22.262;114.192;2022-12-18T00:31:39;8.50;62.90
41435;DHT22;27177;22.262;114.192;2022-12-18T00:34:06;8.60;63.60
41435;DHT22;27177;22.262;114.192;2022-12-18T00:36:34;8.60;62.90
41435;DHT22;27177;22.262;114.192;2022-12-18T00:39:03;8.60;63.10
41435;DHT22;27177;22.262;114.192;2022-12-18T00:41:30;8.50;63.20
41435;DHT22;27177;22.262;114.192;2022-12-18T00:44:16;8.60;62.70
41435;DHT22;27177;22.262;114.192;2022-12-18T00:46:44;8.60;62.70
41435;DHT22;27177;22.262;114.192;2022-12-18T00:49:15;8.60;62.60
41435;DHT22;27177;22.262;114.192;2022-12-18T00:51:43;8.70;62.90
41435;DHT22;27177;22.262;114.192;2022-12-18T00:54:10;8.80;63.60
41435;DHT22;27177;22.262;114.192;2022-12-18T00:56:38;8.80;62.30
41435;DHT22;27177;22.262;114.192;2022-12-18T00:59:05;8.90;62.80
41435;DHT22;27177;22.262;114.192;2022-12-18T01:01:33;8.90;61.80
41435;DHT22;27177;22.262;114.192;2022-12-18T01:04:01;8.90;61.30
41435;DHT22;27177;22.262;114.192;2022-12-18T01:06:28;8.90;61.30
41435;DHT22;27177;22.262;114.192;2022-12-18T01:08:55;9.00;62.60
41435;DHT22;27177;22.262;114.192;2022-12-18T01:11:23;9.10;62.00
41435;DHT22;27177;22.262;114.192;2022-12-18T01:13:52;9.10;60.60
41435;DHT22;27177;22.262;114.192;2022-12-18T01:16:19;9.10;60.50
41435;DHT22;27177;22.262;114.192;2022-12-18T01:18:46;9.10;60.30
41435;DHT22;27177;22.262;114.192;2022-12-18T01:21:15;9.10;60.40
41435;DHT22;27177;22.262;114.192;2022-12-18T01:23:46;9.10;60.30
41435;DHT22;27177;22.262;114.192;2022-12-18T01:26:16;9.10;59.70
41435;DHT22;27177;22.262;114.192;2022-12-18T01:28:43;9.10;59.90
41435;DHT22;27177;22.262;114.192;2022-12-18T01:31:15;9.20;60.60
41435;DHT22;27177;22.262;114.192;2022-12-18T01:33:43;9.20;60.80
41435;DHT22;27177;22.262;114.192;2022-12-18T01:36:16;9.20;60.20
41435;DHT22;27177;22.262;114.192;2022-12-18T01:38:44;9.20;61.00
41435;DHT22;27177;22.262;114.192;2022-12-18T01:41:11;9.20;59.80
41435;DHT22;27177;22.262;114.192;2022-12-18T01:43:53;9.30;61.20
41435;DHT22;27177;22.262;114.192;2022-12-18T01:46:20;9.30;60.60
41435;DHT22;27177;22.262;114.192;2022-12-18T01:48:53;9.40;59.60
41435;DHT22;27177;22.262;114.192;2022-12-18T01:51:21;9.40;60.90
41435;DHT22;27177;22.262;114.192;2022-12-18T01:53:49;9.50;60.40
41435;DHT22;27177;22.262;114.192;2022-12-18T01:56:18;9.50;59.60
41435;DHT22;27177;22.262;114.192;2022-12-18T01:58:58;9.60;59.60
41435;DHT22;27177;22.262;114.192;2022-12-18T02:01:26;9.70;59.70
41435;DHT22;27177;22.262;114.192;2022-12-18T02:03:55;9.70;60.50
41435;DHT22;27177;22.262;114.192;2022-12-18T02:06:35;9.80;60.50
41435;DHT22;27177;22.262;114.192;2022-12-18T02:09:19;9.80;60.60
41435;DHT22;27177;22.262;114.192;2022-12-18T02:11:57;9.90;61.30
41435;DHT22;27177;22.262;114.192;2022-12-18T02:14:41;9.80;61.50
41435;DHT22;27177;22.262;114.192;2022-12-18T02:20:04;9.90;60.40
41435;DHT22;27177;22.262;114.192;2022-12-18T02:22:49;10.00;61.30
41435;DHT22;27177;22.262;114.192;2022-12-18T02:27:55;9.80;60.70
41435;DHT22;27177;22.262;114.192;2022-12-18T02:30:23;9.80;59.70
41435;DHT22;27177;22.262;114.192;2022-12-18T02:32:52;9.90;61.10
41435;DHT22;27177;22.262;114.192;2022-12-18T02:35:29;10.00;61.90
41435;DHT22;27177;22.262;114.192;2022-12-18T02:37:58;10.00;61.30
41435;DHT22;27177;22.262;114.192;2022-12-18T02:40:26;10.00;59.80
41435;DHT22;27177;22.262;114.192;2022-12-18T02:42:54;9.90;60.60
41435;DHT22;27177;22.262;114.192;2022-12-18T02:45:21;10.00;60.60
41435;DHT22;27177;22.262;114.192;2022-12-18T02:47:49;9.90;60.00
41435;DHT22;27177;22.262;114.192;2022-12-18T03:03:18;9.90;60.50
41435;DHT22;27177;22.262;114.192;2022-12-18T03:06:03;9.90;60.80
41435;DHT22;27177;22.262;114.192;2022-12-18T03:08:36;9.90;60.40
41435;DHT22;27177;22.262;114.192;2022-12-18T03:11:10;10.00;61.10
41435;DHT22;27177;22.262;114.192;2022-12-18T03:16:10;10.20;60.90
41435;DHT22;27177;22.262;114.192;2022-12-18T03:18:51;10.20;60.60
41435;DHT22;27177;22.262;114.192;2022-12-18T03:21:22;10.30;61.00
41435;DHT22;27177;22.262;114.192;2022-12-18T03:23:54;10.30;59.30
41435;DHT22;27177;22.262;114.192;2022-12-18T03:26:25;10.30;60.40
41435;DHT22;27177;22.262;114.192;2022-12-18T03:29:02;10.20;60.20
41435;DHT22;27177;22.262;114.192;2022-12-18T03:31:32;10.30;60.90
41435;DHT22;27177;22.262;114.192;2022-12-18T03:34:02;10.30;60.20
41435;DHT22;27177;22.262;114.192;2022-12-18T03:36:32;10.50;61.80
41435;DHT22;27177;22.262;114.192;2022-12-18T03:38:59;10.60;61.00
41435;DHT22;27177;22.262;114.192;2022-12-18T03:41:33;10.60;60.30
41435;DHT22;27177;22.262;114.192;2022-12-18T03:49:39;10.70;59.90
41435;DHT22;27177;22.262;114.192;2022-12-18T03:52:24;10.70;59.10
41435;DHT22;27177;22.262;114.192;2022-12-18T03:54:54;10.60;59.90
41435;DHT22;27177;22.262;114.192;2022-12-18T03:57:25;10.60;59.00
41435;DHT22;27177;22.262;114.192;2022-12-18T03:59:57;10.60;59.30
41435;DHT22;27177;22.262;114.192;2022-12-18T04:02:27;10.60;59.20
41435;DHT22;27177;22.262;114.192;2022-12-18T04:04:59;10.60;59.70
41435;DHT22;27177;22.262;114.192;2022-12-18T04:07:27;10.70;60.90
41435;DHT22;27177;22.262;114.192;2022-12-18T04:09:56;10.90;60.10
41435;DHT22;27177;22.262;114.192;2022-12-18T04:12:28;10.90;59.80
41435;DHT22;27177;22.262;114.192;2022-12-18T04:14:55;10.90;59.00
41435;DHT22;27177;22.262;114.192;2022-12-18T04:17:22;11.00;59.30
41435;DHT22;27177;22.262;114.192;2022-12-18T04:19:50;11.10;58.40
41435;DHT22;27177;22.262;114.192;2022-12-18T04:22:16;11.10;58.70
41435;DHT22;27177;22.262;114.192;2022-12-18T04:24:43;11.20;59.00
41435;DHT22;27177;22.262;114.192;2022-12-18T04:27:10;11.20;57.70
41435;DHT22;27177;22.262;114.192;2022-12-18T04:29:40;11.20;57.50
41435;DHT22;27177;22.262;114.192;2022-12-18T04:32:07;11.20;56.90
41435;DHT22;27177;22.262;114.192;2022-12-18T04:34:34;11.20;57.00
41435;DHT22;27177;22.262;114.192;2022-12-18T04:37:01;11.20;57.40
41435;DHT22;27177;22.262;114.192;2022-12-18T04:39:28;11.30;56.50
41435;DHT22;27177;22.262;114.192;2022-12-18T04:41:54;11.20;55.40
41435;DHT22;27177;22.262;114.192;2022-12-18T04:44:21;11.30;56.50
41435;DHT22;27177;22.262;114.192;2022-12-18T04:46:48;11.30;56.30
41435;DHT22;27177;22.262;114.192;2022-12-18T04:49:15;11.30;56.00
41435;DHT22;27177;22.262;114.192;2022-12-18T04:51:42;11.30;55.80
41435;DHT22;27177;22.262;114.192;2022-12-18T04:54:08;11.40;56.10
41435;DHT22;27177;22.262;114.192;2022-12-18T04:56:35;11.40;56.60
41435;DHT22;27177;22.262;114.192;2022-12-18T04:59:02;11.60;55.50
41435;DHT22;27177;22.262;114.192;2022-12-18T05:01:29;11.60;56.20
41435;DHT22;27177;22.262;114.192;2022-12-18T05:03:55;11.60;55.30
41435;DHT22;27177;22.262;114.192;2022-12-18T05:06:22;11.70;56.50
41435;DHT22;27177;22.262;114.192;2022-12-18T05:08:49;11.80;56.10
41435;DHT22;27177;22.262;114.192;2022-12-18T05:11:16;11.80;56.30
41435;DHT22;27177;22.262;114.192;2022-12-18T05:13:44;11.80;56.10
41435;DHT22;27177;22.262;114.192;2022-12-18T05:16:12;11.70;54.80
41435;DHT22;27177;22.262;114.192;2022-12-18T05:18:40;11.80;55.10
41435;DHT22;27177;22.262;114.192;2022-12-18T05:21:07;11.70;54.60
41435;DHT22;27177;22.262;114.192;2022-12-18T05:23:34;11.70;54.50
41435;DHT22;27177;22.262;114.192;2022-12-18T05:26:03;11.80;55.90
41435;DHT22;27177;22.262;114.192;2022-12-18T05:28:32;11.80;56.10
41435;DHT22;27177;22.262;114.192;2022-12-18T05:31:01;11.80;56.50
41435;DHT22;27177;22.262;114.192;2022-12-18T05:33:32;11.90;55.90
41435;DHT22;27177;22.262;114.192;2022-12-18T05:36:01;11.90;54.70
41435;DHT22;27177;22.262;114.192;2022-12-18T05:38:28;11.90;55.20
41435;DHT22;27177;22.262;114.192;2022-12-18T05:40:56;11.90;55.50
41435;DHT22;27177;22.262;114.192;2022-12-18T05:43:23;12.00;55.90
41435;DHT22;27177;22.262;114.192;2022-12-18T05:45:51;12.00;55.50
41435;DHT22;27177;22.262;114.192;2022-12-18T05:48:19;12.00;56.40
41435;DHT22;27177;22.262;114.192;2022-12-18T05:50:48;12.10;56.70
41435;DHT22;27177;22.262;114.192;2022-12-18T05:53:17;12.10;58.00
41435;DHT22;27177;22.262;114.192;2022-12-18T05:55:45;12.20;57.50
41435;DHT22;27177;22.262;114.192;2022-12-18T05:58:12;12.20;57.00
41435;DHT22;27177;22.262;114.192;2022-12-18T06:00:43;12.30;58.20
41435;DHT22;27177;22.262;114.192;2022-12-18T06:03:12;12.20;57.30
41435;DHT22;27177;22.262;114.192;2022-12-18T06:05:41;12.30;57.80
41435;DHT22;27177;22.262;114.192;2022-12-18T06:08:08;12.30;57.90
41435;DHT22;27177;22.262;114.192;2022-12-18T06:10:35;12.30;56.20
41435;DHT22;27177;22.262;114.192;2022-12-18T06:13:04;12.30;57.70
41435;DHT22;27177;22.262;114.192;2022-12-18T06:15:31;12.30;53.60
41435;DHT22;27177;22.262;114.192;2022-12-18T06:17:59;12.40;55.40
41435;DHT22;27177;22.262;114.192;2022-12-18T06:20:26;12.40;56.70
41435;DHT22;27177;22.262;114.192;2022-12-18T06:22:53;12.40;56.20
41435;DHT22;27177;22.262;114.192;2022-12-18T06:25:20;12.50;56.20
41435;DHT22;27177;22.262;114.192;2022-12-18T06:27:47;12.40;57.40
41435;DHT22;27177;22.262;114.192;2022-12-18T06:30:15;12.40;57.00
41435;DHT22;27177;22.262;114.192;2022-12-18T06:32:41;12.40;57.20
41435;DHT22;27177;22.262;114.192;2022-12-18T06:35:08;12.40;58.00
41435;DHT22;27177;22.262;114.192;2022-12-18T06:37:35;12.40;57.20
41435;DHT22;27177;22.262;114.192;2022-12-18T06:40:02;12.40;55.60
41435;DHT22;27177;22.262;114.192;2022-12-18T06:42:29;12.50;56.00
41435;DHT22;27177;22.262;114.192;2022-12-18T06:44:56;12.50;57.80
41435;DHT22;27177;22.262;114.192;2022-12-18T06:47:23;12.50;57.90
41435;DHT22;27177;22.262;114.192;2022-12-18T06:49:50;12.50;57.20
41435;DHT22;27177;22.262;114.192;2022-12-18T06:52:16;12.50;56.00
41435;DHT22;27177;22.262;114.192;2022-12-18T06:54:43;12.50;56.30
41435;DHT22;27177;22.262;114.192;2022-12-18T06:57:10;12.40;54.40
41435;DHT22;27177;22.262;114.192;2022-12-18T06:59:37;12.40;55.40
41435;DHT22;27177;22.262;114.192;2022-12-18T07:02:04;12.30;55.60
41435;DHT22;27177;22.262;114.192;2022-12-18T07:04:30;12.30;55.30
41435;DHT22;27177;22.262;114.192;2022-12-18T07:06:57;12.20;55.20
41435;DHT22;27177;22.262;114.192;2022-12-18T07:09:24;12.20;54.90
41435;DHT22;27177;22.262;114.192;2022-12-18T07:11:51;12.10;54.30
41435;DHT22;27177;22.262;114.192;2022-12-18T07:14:18;12.10;55.20
41435;DHT22;27177;22.262;114.192;2022-12-18T07:16:44;12.10;54.40
41435;DHT22;27177;22.262;114.192;2022-12-18T07:19:11;12.10;56.30
41435;DHT22;27177;22.262;114.192;2022-12-18T07:21:38;12.10;56.50
41435;DHT22;27177;22.262;114.192;2022-12-18T07:24:05;12.00;57.00
41435;DHT22;27177;22.262;114.192;2022-12-18T07:26:32;12.10;55.70
41435;DHT22;27177;22.262;114.192;2022-12-18T07:28:59;12.10;56.30
41435;DHT22;27177;22.262;114.192;2022-12-18T07:31:26;12.10;55.50
41435;DHT22;27177;22.262;114.192;2022-12-18T07:33:53;12.00;56.40
41435;DHT22;27177;22.262;114.192;2022-12-18T07:36:20;12.10;56.00
41435;DHT22;27177;22.262;114.192;2022-12-18T07:38:47;12.00;56.10
41435;DHT22;27177;22.262;114.192;2022-12-18T07:41:14;12.00;56.00
41435;DHT22;27177;22.262;114.192;2022-12-18T07:43:41;12.00;56.30
41435;DHT22;27177;22.262;114.192;2022-12-18T07:46:09;12.00;56.30
41435;DHT22;27177;22.262;114.192;2022-12-18T07:48:36;12.00;56.30
41435;DHT22;27177;22.262;114.192;2022-12-18T07:51:05;12.00;55.50
41435;DHT22;27177;22.262;114.192;2022-12-18T07:53:33;12.00;55.40
41435;DHT22;27177;22.262;114.192;2022-12-18T07:56:04;12.00;56.30
41435;DHT22;27177;22.262;114.192;2022-12-18T07:58:32;12.00;55.60
41435;DHT22;27177;22.262;114.192;2022-12-18T08:01:07;12.00;56.30
41435;DHT22;27177;22.262;114.192;2022-12-18T08:03:34;12.00;56.00
41435;DHT22;27177;22.262;114.192;2022-12-18T08:06:03;12.00;54.90
41435;DHT22;27177;22.262;114.192;2022-12-18T08:08:30;12.00;55.00
41435;DHT22;27177;22.262;114.192;2022-12-18T08:10:58;11.90;54.00
41435;DHT22;27177;22.262;114.192;2022-12-18T08:13:25;11.90;54.80
41435;DHT22;27177;22.262;114.192;2022-12-18T08:16:00;11.90;56.30
41435;DHT22;27177;22.262;114.192;2022-12-18T08:18:27;12.00;56.30
41435;DHT22;27177;22.262;114.192;2022-12-18T08:20:55;12.00;56.00
41435;DHT22;27177;22.262;114.192;2022-12-18T08:23:22;12.00;55.60
41435;DHT22;27177;22.262;114.192;2022-12-18T08:25:49;12.00;55.70
41435;DHT22;27177;22.262;114.192;2022-12-18T08:28:17;12.00;54.90
41435;DHT22;27177;22.262;114.192;2022-12-18T08:30:43;12.00;55.20
41435;DHT22;27177;22.262;114.192;2022-12-18T08:33:10;12.00;56.00
41435;DHT22;27177;22.262;114.192;2022-12-18T08:35:37;12.00;56.60
41435;DHT22;27177;22.262;114.192;2022-12-18T08:38:04;12.00;57.40
41435;DHT22;27177;22.262;114.192;2022-12-18T08:40:30;12.00;57.90
41435;DHT22;27177;22.262;114.192;2022-12-18T08:42:57;11.90;57.80
41435;DHT22;27177;22.262;114.192;2022-12-18T08:45:42;11.90;57.90
41435;DHT22;27177;22.262;114.192;2022-12-18T08:48:09;11.90;57.60
41435;DHT22;27177;22.262;114.192;2022-12-18T08:50:36;11.90;58.00
41435;DHT22;27177;22.262;114.192;2022-12-18T08:53:03;11.90;57.90
41435;DHT22;27177;22.262;114.192;2022-12-18T08:55:30;11.90;58.60
41435;DHT22;27177;22.262;114.192;2022-12-18T08:57:56;11.80;60.00
41435;DHT22;27177;22.262;114.192;2022-12-18T09:00:23;11.80;57.90
41435;DHT22;27177;22.262;114.192;2022-12-18T09:02:50;11.80;58.20
41435;DHT22;27177;22.262;114.192;2022-12-18T09:05:17;11.80;58.80
41435;DHT22;27177;22.262;114.192;2022-12-18T09:07:44;11.80;59.20
41435;DHT22;27177;22.262;114.192;2022-12-18T09:10:10;11.80;60.50
41435;DHT22;27177;22.262;114.192;2022-12-18T09:12:38;11.70;60.70
41435;DHT22;27177;22.262;114.192;2022-12-18T09:15:05;11.70;60.30
41435;DHT22;27177;22.262;114.192;2022-12-18T09:17:32;11.70;60.40
41435;DHT22;27177;22.262;114.192;2022-12-18T09:19:59;11.70;60.90
41435;DHT22;27177;22.262;114.192;2022-12-18T09:22:25;11.60;61.00
41435;DHT22;27177;22.262;114.192;2022-12-18T09:24:52;11.60;61.90
41435;DHT22;27177;22.262;114.192;2022-12-18T09:27:20;11.50;61.70
41435;DHT22;27177;22.262;114.192;2022-12-18T09:29:47;11.50;62.30
41435;DHT22;27177;22.262;114.192;2022-12-18T09:32:13;11.50;62.30
41435;DHT22;27177;22.262;114.192;2022-12-18T09:34:40;11.40;62.60
41435;DHT22;27177;22.262;114.192;2022-12-18T09:37:07;11.40;63.80
41435;DHT22;27177;22.262;114.192;2022-12-18T09:39:35;11.40;61.80
41435;DHT22;27177;22.262;114.192;2022-12-18T09:42:02;11.40;62.30
41435;DHT22;27177;22.262;114.192;2022-12-18T09:44:30;11.30;64.10
41435;DHT22;27177;22.262;114.192;2022-12-18T09:53:27;11.20;64.50
41435;DHT22;27177;22.262;114.192;2022-12-18T10:01:23;11.10;63.70
41435;DHT22;27177;22.262;114.192;2022-12-18T10:03:55;11.10;64.70
41435;DHT22;27177;22.262;114.192;2022-12-18T10:47:50;10.70;67.30
41435;DHT22;27177;22.262;114.192;2022-12-18T10:53:03;10.70;66.30
41435;DHT22;27177;22.262;114.192;2022-12-18T10:55:38;10.70;65.90
41435;DHT22;27177;22.262;114.192;2022-12-18T11:16:49;10.70;62.50
41435;DHT22;27177;22.262;114.192;2022-12-18T11:21:56;10.70;64.00
41435;DHT22;27177;22.262;114.192;2022-12-18T11:37:35;10.70;64.50
41435;DHT22;27177;22.262;114.192;2022-12-18T11:42:52;10.60;64.90
41435;DHT22;27177;22.262;114.192;2022-12-18T11:45:46;10.60;64.70
41435;DHT22;27177;22.262;114.192;2022-12-18T12:01:32;10.50;64.90
41435;DHT22;27177;22.262;114.192;2022-12-18T12:12:11;10.30;66.80
41435;DHT22;27177;22.262;114.192;2022-12-18T12:28:53;10.30;66.00
41435;DHT22;27177;22.262;114.192;2022-12-18T12:31:46;10.30;65.60
41435;DHT22;27177;22.262;114.192;2022-12-18T12:39:56;10.40;65.40
41435;DHT22;27177;22.262;114.192;2022-12-18T12:42:42;10.40;65.00
41435;DHT22;27177;22.262;114.192;2022-12-18T12:45:53;10.40;66.40
41435;DHT22;27177;22.262;114.192;2022-12-18T12:50:53;10.40;65.50
41435;DHT22;27177;22.262;114.192;2022-12-18T12:53:46;10.40;65.30
41435;DHT22;27177;22.262;114.192;2022-12-18T12:56:16;10.40;65.10
41435;DHT22;27177;22.262;114.192;2022-12-18T12:58:50;10.40;65.30
41435;DHT22;27177;22.262;114.192;2022-12-18T13:06:50;10.40;65.20
41435;DHT22;27177;22.262;114.192;2022-12-18T13:09:30;10.50;65.60
41435;DHT22;27177;22.262;114.192;2022-12-18T13:12:03;10.40;66.00
41435;DHT22;27177;22.262;114.192;2022-12-18T13:14:48;10.50;65.50
41435;DHT22;27177;22.262;114.192;2022-12-18T13:17:16;10.40;66.00
41435;DHT22;27177;22.262;114.192;2022-12-18T13:19:43;10.40;66.30
41435;DHT22;27177;22.262;114.192;2022-12-18T13:22:25;10.40;67.20
41435;DHT22;27177;22.262;114.192;2022-12-18T13:24:54;10.40;67.10
41435;DHT22;27177;22.262;114.192;2022-12-18T13:41:04;10.30;71.80
41435;DHT22;27177;22.262;114.192;2022-12-18T13:47:00;10.10;71.50
41435;DHT22;27177;22.262;114.192;2022-12-18T13:49:38;10.10;70.80
41435;DHT22;27177;22.262;114.192;2022-12-18T13:52:34;10.20;71.40
41435;DHT22;27177;22.262;114.192;2022-12-18T13:55:06;10.20;71.50
41435;DHT22;27177;22.262;114.192;2022-12-18T13:57:36;10.20;72.40
41435;DHT22;27177;22.262;114.192;2022-12-18T14:00:33;10.10;72.80
41435;DHT22;27177;22.262;114.192;2022-12-18T14:03:00;10.10;73.70
41435;DHT22;27177;22.262;114.192;2022-12-18T14:05:35;10.10;73.70
41435;DHT22;27177;22.262;114.192;2022-12-18T14:08:10;10.00;75.00
41435;DHT22;27177;22.262;114.192;2022-12-18T14:10:42;10.10;72.20
41435;DHT22;27177;22.262;114.192;2022-12-18T14:13:09;10.10;72.70
41435;DHT22;27177;22.262;114.192;2022-12-18T14:15:42;10.10;73.90
41435;DHT22;27177;22.262;114.192;2022-12-18T14:18:24;10.10;73.40
41435;DHT22;27177;22.262;114.192;2022-12-18T14:20:51;10.10;74.80
41435;DHT22;27177;22.262;114.192;2022-12-18T14:23:45;10.10;74.20
41435;DHT22;27177;22.262;114.192;2022-12-18T14:26:24;10.10;74.70
41435;DHT22;27177;22.262;114.192;2022-12-18T14:28:55;10.10;77.00
41435;DHT22;27177;22.262;114.192;2022-12-18T14:31:26;10.10;77.60
41435;DHT22;27177;22.262;114.192;2022-12-18T14:33:53;10.00;77.70
41435;DHT22;27177;22.262;114.192;2022-12-18T14:36:25;10.00;78.10
41435;DHT22;27177;22.262;114.192;2022-12-18T14:38:57;10.00;77.80
41435;DHT22;27177;22.262;114.192;2022-12-18T14:41:26;10.00;77.10
41435;DHT22;27177;22.262;114.192;2022-12-18T14:44:07;10.10;76.80
41435;DHT22;27177;22.262;114.192;2022-12-18T14:46:46;10.10;77.30
41435;DHT22;27177;22.262;114.192;2022-12-18T14:49:23;10.10;77.60
41435;DHT22;27177;22.262;114.192;2022-12-18T14:52:02;10.00;79.60
41435;DHT22;27177;22.262;114.192;2022-12-18T14:54:30;10.00;80.00
41435;DHT22;27177;22.262;114.192;2022-12-18T14:57:05;10.00;79.40
41435;DHT22;27177;22.262;114.192;2022-12-18T14:59:32;10.00;83.00
41435;DHT22;27177;22.262;114.192;2022-12-18T15:02:19;9.90;81.60
41435;DHT22;27177;22.262;114.192;2022-12-18T15:04:53;9.90;81.60
41435;DHT22;27177;22.262;114.192;2022-12-18T15:07:25;9.90;85.00
41435;DHT22;27177;22.262;114.192;2022-12-18T15:10:22;9.80;88.70
41435;DHT22;27177;22.262;114.192;2022-12-18T15:20:43;9.70;83.90
41435;DHT22;27177;22.262;114.192;2022-12-18T15:23:28;9.70;84.40
41435;DHT22;27177;22.262;114.192;2022-12-18T15:26:05;9.80;83.50
41435;DHT22;27177;22.262;114.192;2022-12-18T15:36:22;9.70;87.00
41435;DHT22;27177;22.262;114.192;2022-12-18T15:44:00;9.70;86.80
41435;DHT22;27177;22.262;114.192;2022-12-18T15:46:27;9.70;86.60
41435;DHT22;27177;22.262;114.192;2022-12-18T15:48:55;9.70;88.30
41435;DHT22;27177;22.262;114.192;2022-12-18T15:51:38;9.70;85.80
41435;DHT22;27177;22.262;114.192;2022-12-18T15:54:11;9.70;90.30
41435;DHT22;27177;22.262;114.192;2022-12-18T15:56:41;9.60;90.80
41435;DHT22;27177;22.262;114.192;2022-12-18T15:59:26;9.60;88.80
41435;DHT22;27177;22.262;114.192;2022-12-18T16:01:53;9.70;88.50
41435;DHT22;27177;22.262;114.192;2022-12-18T16:04:22;9.70;87.20
41435;DHT22;27177;22.262;114.192;2022-12-18T16:06:49;9.70;87.00
41435;DHT22;27177;22.262;114.192;2022-12-18T16:09:19;9.70;88.40
41435;DHT22;27177;22.262;114.192;2022-12-18T16:11:46;9.70;87.30
41435;DHT22;27177;22.262;114.192;2022-12-18T16:14:29;9.70;88.10
41435;DHT22;27177;22.262;114.192;2022-12-18T16:16:59;9.80;87.80
41435;DHT22;27177;22.262;114.192;2022-12-18T16:19:37;9.80;88.20
41435;DHT22;27177;22.262;114.192;2022-12-18T16:22:08;9.70;88.50
41435;DHT22;27177;22.262;114.192;2022-12-18T16:24:50;9.70;89.00
41435;DHT22;27177;22.262;114.192;2022-12-18T16:27:20;9.70;88.60
41435;DHT22;27177;22.262;114.192;2022-12-18T16:32:23;9.60;88.50
41435;DHT22;27177;22.262;114.192;2022-12-18T16:34:49;9.60;90.70
41435;DHT22;27177;22.262;114.192;2022-12-18T16:37:16;9.60;88.90
41435;DHT22;27177;22.262;114.192;2022-12-18T16:39:44;9.60;90.30
41435;DHT22;27177;22.262;114.192;2022-12-18T16:44:41;9.60;88.00
41435;DHT22;27177;22.262;114.192;2022-12-18T16:47:08;9.70;87.60
41435;DHT22;27177;22.262;114.192;2022-12-18T16:49:35;9.70;88.10
41435;DHT22;27177;22.262;114.192;2022-12-18T16:52:03;9.70;87.80
41435;DHT22;27177;22.262;114.192;2022-12-18T16:54:30;9.70;86.10
41435;DHT22;27177;22.262;114.192;2022-12-18T16:56:58;9.70;87.10
41435;DHT22;27177;22.262;114.192;2022-12-18T16:59:26;9.80;86.70
41435;DHT22;27177;22.262;114.192;2022-12-18T17:01:54;9.80;86.10
41435;DHT22;27177;22.262;114.192;2022-12-18T17:04:22;9.80;85.70
41435;DHT22;27177;22.262;114.192;2022-12-18T17:06:49;9.90;86.00
41435;DHT22;27177;22.262;114.192;2022-12-18T17:09:21;9.90;86.00
41435;DHT22;27177;22.262;114.192;2022-12-18T17:11:51;9.90;87.80
41435;DHT22;27177;22.262;114.192;2022-12-18T17:14:20;9.90;88.10
41435;DHT22;27177;22.262;114.192;2022-12-18T17:16:47;9.90;89.60
41435;DHT22;27177;22.262;114.192;2022-12-18T17:19:15;9.80;90.00
41435;DHT22;27177;22.262;114.192;2022-12-18T17:21:43;9.80;89.40
41435;DHT22;27177;22.262;114.192;2022-12-18T17:24:10;9.80;89.80
41435;DHT22;27177;22.262;114.192;2022-12-18T17:26:37;9.70;89.70
41435;DHT22;27177;22.262;114.192;2022-12-18T17:29:04;9.70;88.70
41435;DHT22;27177;22.262;114.192;2022-12-18T17:31:31;9.70;89.80
41435;DHT22;27177;22.262;114.192;2022-12-18T17:34:01;9.70;88.80
41435;DHT22;27177;22.262;114.192;2022-12-18T17:36:28;9.70;90.00
41435;DHT22;27177;22.262;114.192;2022-12-18T17:38:59;9.70;90.00
41435;DHT22;27177;22.262;114.192;2022-12-18T17:41:27;9.70;90.10
41435;DHT22;27177;22.262;114.192;2022-12-18T17:43:56;9.70;90.80
41435;DHT22;27177;22.262;114.192;2022-12-18T17:46:24;9.60;91.10
41435;DHT22;27177;22.262;114.192;2022-12-18T17:48:51;9.60;91.80
41435;DHT22;27177;22.262;114.192;2022-12-18T17:51:20;9.60;91.50
41435;DHT22;27177;22.262;114.192;2022-12-18T17:53:47;9.60;90.90
41435;DHT22;27177;22.262;114.192;2022-12-18T17:56:15;9.60;91.10
41435;DHT22;27177;22.262;114.192;2022-12-18T17:58:43;9.60;91.00
41435;DHT22;27177;22.262;114.192;2022-12-18T18:03:47;9.70;89.90
41435;DHT22;27177;22.262;114.192;2022-12-18T18:06:14;9.80;89.20
41435;DHT22;27177;22.262;114.192;2022-12-18T18:08:43;9.90;89.90
41435;DHT22;27177;22.262;114.192;2022-12-18T18:11:16;9.90;89.50
41435;DHT22;27177;22.262;114.192;2022-12-18T18:14:03;10.00;88.50
41435;DHT22;27177;22.262;114.192;2022-12-18T18:16:33;10.10;88.00
41435;DHT22;27177;22.262;114.192;2022-12-18T18:19:09;10.20;87.50
41435;DHT22;27177;22.262;114.192;2022-12-18T18:21:42;10.20;88.80
41435;DHT22;27177;22.262;114.192;2022-12-18T18:24:12;10.20;88.60
41435;DHT22;27177;22.262;114.192;2022-12-18T18:26:44;10.20;88.40
41435;DHT22;27177;22.262;114.192;2022-12-18T18:29:18;10.10;90.80
41435;DHT22;27177;22.262;114.192;2022-12-18T18:31:48;10.10;91.10
41435;DHT22;27177;22.262;114.192;2022-12-18T18:34:21;10.00;91.10
41435;DHT22;27177;22.262;114.192;2022-12-18T18:36:51;9.90;91.30
41435;DHT22;27177;22.262;114.192;2022-12-18T18:39:25;9.80;90.80
41435;DHT22;27177;22.262;114.192;2022-12-18T18:41:55;9.90;90.70
41435;DHT22;27177;22.262;114.192;2022-12-18T18:44:27;9.90;90.80
41435;DHT22;27177;22.262;114.192;2022-12-18T18:46:55;9.80;90.70
41435;DHT22;27177;22.262;114.192;2022-12-18T18:49:35;9.80;90.50
41435;DHT22;27177;22.262;114.192;2022-12-18T18:52:05;9.80;91.00
41435;DHT22;27177;22.262;114.192;2022-12-18T18:54:32;9.70;90.90
41435;DHT22;27177;22.262;114.192;2022-12-18T18:56:59;9.70;91.00
41435;DHT22;27177;22.262;114.192;2022-12-18T18:59:27;9.70;91.10
41435;DHT22;27177;22.262;114.192;2022-12-18T19:02:05;9.70;90.80